createdAt,value
2023-05-19T00:01:00.666Z,12.56
2023-05-19T00:04:07.101Z,12.58
2023-05-19T00:07:13.566Z,12.53
2023-05-19T00:10:18.373Z,12.57
2023-05-19T00:13:21.810Z,12.57
2023-05-19T00:16:27.594Z,12.57
2023-05-19T00:19:32.469Z,12.58
2023-05-19T00:22:37.073Z,12.58
2023-05-19T00:25:39.547Z,12.58
2023-05-19T00:28:42.979Z,12.58
2023-05-19T00:31:46.412Z,12.49
2023-05-19T00:34:50.978Z,12.51
2023-05-19T00:37:56.315Z,12.47
2023-05-19T00:41:01.336Z,12.52
2023-05-19T00:44:03.832Z,12.49
2023-05-19T00:47:08.445Z,12.49
2023-05-19T00:50:12.331Z,12.47
2023-05-19T00:53:17.447Z,12.41
2023-05-19T00:56:22.059Z,12.40
2023-05-19T00:59:26.047Z,12.38
2023-05-19T01:02:29.848Z,12.37
2023-05-19T01:05:32.786Z,12.36
2023-05-19T01:08:37.483Z,12.33
2023-05-19T01:11:40.820Z,12.32
2023-05-19T01:14:45.378Z,12.28
2023-05-19T01:18:07.516Z,12.25
2023-05-19T01:21:44.410Z,12.26
2023-05-19T01:25:15.589Z,12.26
2023-05-19T01:28:48.922Z,12.24
2023-05-19T01:31:55.360Z,12.24
2023-05-19T01:34:58.810Z,12.26
2023-05-19T01:38:03.461Z,12.20
2023-05-19T01:41:07.597Z,12.22
2023-05-19T01:44:11.778Z,12.18
2023-05-19T01:47:15.485Z,12.20
2023-05-19T01:50:18.093Z,12.18
2023-05-19T01:53:20.444Z,12.09
2023-05-19T01:56:38.846Z,11.99
2023-05-19T02:00:07.932Z,11.99
2023-05-19T02:03:38.429Z,12.00
2023-05-19T02:07:22.556Z,12.02
2023-05-19T02:10:32.466Z,12.04
2023-05-19T02:13:41.690Z,11.99
2023-05-19T02:16:48.732Z,12.02
2023-05-19T02:19:52.291Z,11.98
2023-05-19T02:22:54.904Z,11.94
2023-05-19T02:25:58.638Z,11.96
2023-05-19T02:29:02.017Z,11.95
2023-05-19T02:32:06.978Z,11.92
2023-05-19T02:35:10.110Z,11.92
2023-05-19T02:38:13.464Z,11.90
2023-05-19T02:41:16.066Z,11.88
2023-05-19T02:44:19.846Z,11.83
2023-05-19T02:47:22.908Z,11.83
2023-05-19T02:50:25.556Z,11.86
2023-05-19T02:53:30.028Z,11.84
2023-05-19T02:56:32.353Z,11.88
2023-05-19T02:59:36.705Z,11.93
2023-05-19T03:02:41.882Z,11.90
2023-05-19T03:05:44.757Z,11.88
2023-05-19T03:08:47.438Z,11.89
2023-05-19T03:11:50.138Z,11.86
2023-05-19T03:14:52.871Z,11.82
2023-05-19T03:17:57.156Z,11.78
2023-05-19T03:20:59.732Z,11.78
2023-05-19T03:24:04.507Z,11.85
2023-05-19T03:27:07.303Z,11.82
2023-05-19T03:30:10.999Z,11.79
2023-05-19T03:33:15.219Z,11.77
2023-05-19T03:36:20.027Z,11.75
2023-05-19T03:39:23.412Z,11.77
2023-05-19T03:42:26.625Z,11.79
2023-05-19T03:45:29.274Z,11.83
2023-05-19T03:48:37.159Z,11.82
2023-05-19T03:51:43.364Z,11.81
2023-05-19T03:54:54.131Z,11.78
2023-05-19T03:57:57.458Z,11.77
2023-05-19T04:01:00.764Z,11.77
2023-05-19T04:04:03.953Z,11.78
2023-05-19T04:07:07.442Z,11.76
2023-05-19T04:10:13.138Z,11.75
2023-05-19T04:13:15.502Z,11.83
2023-05-19T04:16:20.060Z,11.81
2023-05-19T04:19:23.520Z,11.87
2023-05-19T04:22:27.616Z,11.92
2023-05-19T04:25:30.012Z,11.97
2023-05-19T04:28:36.054Z,12.02
2023-05-19T04:31:38.580Z,12.00
2023-05-19T04:34:45.359Z,12.04
2023-05-19T04:37:48.533Z,12.11
2023-05-19T04:40:52.522Z,12.11
2023-05-19T04:43:57.567Z,12.18
2023-05-19T04:47:00.305Z,12.22
2023-05-19T04:50:03.257Z,12.25
2023-05-19T04:53:05.855Z,12.33
2023-05-19T04:56:09.874Z,12.31
2023-05-19T04:59:12.673Z,12.38
2023-05-19T05:02:15.470Z,12.44
2023-05-19T05:05:18.190Z,12.52
2023-05-19T05:08:23.353Z,12.56
2023-05-19T05:11:26.767Z,12.66
2023-05-19T05:14:30.114Z,12.70
2023-05-19T05:17:35.448Z,12.81
2023-05-19T05:20:38.516Z,12.92
2023-05-19T05:23:41.453Z,13.05
2023-05-19T05:26:45.043Z,13.12
2023-05-19T05:29:48.748Z,13.21
2023-05-19T05:32:52.069Z,13.29
2023-05-19T05:35:58.371Z,13.41
2023-05-19T05:39:02.492Z,13.42
2023-05-19T05:42:05.220Z,13.47
2023-05-19T05:45:08.135Z,13.52
2023-05-19T05:48:11.524Z,13.66
2023-05-19T05:51:14.184Z,13.77
2023-05-19T05:54:21.701Z,13.70
2023-05-19T05:57:25.170Z,13.65
2023-05-19T06:00:29.006Z,13.72
2023-05-19T06:03:32.269Z,13.74
2023-05-19T06:06:40.736Z,13.78
2023-05-19T06:09:43.729Z,13.75
2023-05-19T06:12:46.088Z,13.80
2023-05-19T06:15:48.744Z,13.87
2023-05-19T06:18:51.373Z,13.86
2023-05-19T06:21:54.006Z,13.90
2023-05-19T06:24:56.465Z,13.99
2023-05-19T06:27:59.113Z,14.01
2023-05-19T06:31:01.688Z,14.10
2023-05-19T06:34:05.267Z,14.21
2023-05-19T06:37:07.933Z,14.22
2023-05-19T06:40:12.024Z,14.27
2023-05-19T06:43:14.833Z,14.23
2023-05-19T06:46:21.113Z,14.28
2023-05-19T06:49:24.021Z,14.40
2023-05-19T06:52:26.687Z,14.53
2023-05-19T06:55:29.638Z,14.71
2023-05-19T06:58:33.102Z,14.86
2023-05-19T07:01:36.346Z,15.08
2023-05-19T07:04:39.943Z,15.20
2023-05-19T07:07:42.575Z,15.38
2023-05-19T07:10:47.066Z,15.63
2023-05-19T07:13:50.200Z,15.81
2023-05-19T07:16:53.645Z,15.84
2023-05-19T07:19:56.180Z,15.95
2023-05-19T07:22:58.676Z,15.93
2023-05-19T07:26:01.187Z,16.16
2023-05-19T07:29:03.801Z,16.55
2023-05-19T07:32:06.758Z,16.76
2023-05-19T07:35:09.450Z,16.86
2023-05-19T07:38:12.199Z,17.01
2023-05-19T07:41:15.050Z,17.38
2023-05-19T07:44:17.352Z,17.57
2023-05-19T07:47:19.866Z,17.57
2023-05-19T07:50:22.305Z,17.78
2023-05-19T07:53:24.885Z,17.80
2023-05-19T07:56:27.374Z,18.05
2023-05-19T07:59:29.867Z,18.32
2023-05-19T08:02:32.201Z,18.43
2023-05-19T08:05:36.131Z,18.23
2023-05-19T08:08:38.298Z,18.10
2023-05-19T08:11:41.081Z,18.59
2023-05-19T08:14:43.265Z,19.01
2023-05-19T08:17:46.021Z,19.40
2023-05-19T08:20:48.281Z,19.82
2023-05-19T08:23:51.166Z,20.14
2023-05-19T08:26:53.376Z,19.49
2023-05-19T08:29:56.150Z,19.85
2023-05-19T08:32:58.451Z,19.94
2023-05-19T08:36:01.642Z,19.80
2023-05-19T08:39:04.076Z,19.89
2023-05-19T08:42:10.040Z,19.59
2023-05-19T08:45:13.102Z,19.30
2023-05-19T08:48:18.711Z,18.97
2023-05-19T08:51:32.140Z,18.91
2023-05-19T08:54:50.888Z,18.75
2023-05-19T08:57:53.480Z,18.53
2023-05-19T09:00:57.747Z,18.44
2023-05-19T09:04:00.200Z,18.34
2023-05-19T09:07:04.038Z,18.24
2023-05-19T09:10:08.926Z,18.22
2023-05-19T09:13:11.683Z,18.16
2023-05-19T09:16:14.334Z,18.17
2023-05-19T09:19:17.076Z,18.28
2023-05-19T09:22:20.588Z,18.31
2023-05-19T09:25:24.019Z,18.41
2023-05-19T09:28:34.264Z,18.49
2023-05-19T09:31:36.861Z,18.48
2023-05-19T09:34:42.173Z,18.49
2023-05-19T09:37:44.696Z,18.58
2023-05-19T09:40:49.747Z,18.81
2023-05-19T09:43:56.311Z,19.00
2023-05-19T09:46:58.876Z,19.09
2023-05-19T09:50:01.492Z,19.15
2023-05-19T09:53:04.071Z,19.98
2023-05-19T09:56:08.843Z,20.39
2023-05-19T09:59:14.110Z,20.07
2023-05-19T10:02:20.224Z,19.67
2023-05-19T10:05:23.692Z,19.70
2023-05-19T10:08:27.491Z,19.58
2023-05-19T10:11:30.963Z,19.64
2023-05-19T10:14:33.285Z,20.26
2023-05-19T10:17:38.180Z,20.64
2023-05-19T10:20:41.347Z,20.48
2023-05-19T10:23:43.840Z,20.32
2023-05-19T10:26:55.158Z,20.09
2023-05-19T10:30:02.218Z,19.88
2023-05-19T10:33:08.073Z,20.20
2023-05-19T10:36:37.961Z,20.87
2023-05-19T10:39:44.609Z,21.33
2023-05-19T10:42:57.942Z,21.77
2023-05-19T10:46:00.862Z,21.97
2023-05-19T10:49:03.371Z,22.34
2023-05-19T10:52:21.459Z,22.57
2023-05-19T10:55:46.732Z,22.47
2023-05-19T10:58:50.522Z,22.58
2023-05-19T11:01:53.200Z,22.62
2023-05-19T11:04:58.405Z,22.67
2023-05-19T11:08:11.634Z,22.65
2023-05-19T11:11:17.547Z,22.54
2023-05-19T11:14:27.168Z,22.83
2023-05-19T11:17:29.526Z,22.71
2023-05-19T11:20:34.804Z,22.41
2023-05-19T11:23:40.239Z,21.96
2023-05-19T11:26:46.311Z,21.89
2023-05-19T11:29:49.416Z,22.02
2023-05-19T11:32:54.392Z,21.72
2023-05-19T11:35:58.498Z,21.57
2023-05-19T11:39:33.192Z,21.64
2023-05-19T11:42:48.424Z,21.77
2023-05-19T11:45:54.278Z,21.95
2023-05-19T11:48:58.291Z,22.20
2023-05-19T11:52:03.898Z,22.17
2023-05-19T11:55:06.809Z,21.94
2023-05-19T11:58:09.314Z,22.06
2023-05-19T12:01:11.580Z,22.07
2023-05-19T12:04:14.095Z,21.84
2023-05-19T12:07:18.406Z,21.99
2023-05-19T12:10:26.103Z,22.12
2023-05-19T12:13:28.891Z,22.22
2023-05-19T12:16:35.427Z,22.27
2023-05-19T12:19:37.969Z,22.27
2023-05-19T12:22:40.772Z,22.37
2023-05-19T12:25:43.081Z,22.39
2023-05-19T12:28:46.189Z,22.54
2023-05-19T12:31:49.421Z,22.67
2023-05-19T12:34:53.212Z,22.51
2023-05-19T12:37:55.840Z,22.34
2023-05-19T12:40:59.995Z,22.32
2023-05-19T12:44:02.150Z,22.41
2023-05-19T12:47:06.074Z,22.47
2023-05-19T12:50:09.915Z,22.57
2023-05-19T12:53:14.424Z,22.57
2023-05-19T12:56:17.116Z,22.63
2023-05-19T12:59:37.407Z,22.76
2023-05-19T13:03:06.653Z,22.66
2023-05-19T13:06:10.403Z,22.71
2023-05-19T13:09:13.101Z,22.70
2023-05-19T13:12:16.524Z,22.78
2023-05-19T13:15:18.765Z,22.90
2023-05-19T13:18:21.424Z,22.82
2023-05-19T13:21:25.480Z,22.66
2023-05-19T13:24:29.608Z,22.51
2023-05-19T13:27:31.827Z,22.54
2023-05-19T13:30:36.462Z,22.64
2023-05-19T13:33:39.047Z,22.71
2023-05-19T13:36:42.811Z,22.62
2023-05-19T13:39:45.073Z,22.47
2023-05-19T13:42:48.139Z,22.34
2023-05-19T13:45:50.446Z,22.28
2023-05-19T13:48:53.134Z,22.40
2023-05-19T13:51:58.637Z,22.38
2023-05-19T13:55:01.195Z,22.36
2023-05-19T13:58:03.547Z,22.41
2023-05-19T14:01:06.109Z,22.34
2023-05-19T14:04:08.714Z,22.23
2023-05-19T14:07:11.079Z,22.12
2023-05-19T14:10:13.610Z,22.01
2023-05-19T14:13:30.960Z,21.90
2023-05-19T14:16:36.357Z,21.96
2023-05-19T14:19:40.865Z,22.09
2023-05-19T14:22:43.389Z,22.22
2023-05-19T14:25:45.776Z,22.37
2023-05-19T14:28:48.242Z,22.50
2023-05-19T14:31:50.598Z,22.67
2023-05-19T14:34:53.335Z,22.83
2023-05-19T14:37:55.686Z,22.80
2023-05-19T14:40:58.162Z,22.69
2023-05-19T14:44:00.510Z,22.55
2023-05-19T14:47:04.119Z,22.56
2023-05-19T14:50:06.829Z,22.65
2023-05-19T14:53:09.431Z,22.79
2023-05-19T14:56:11.603Z,22.83
2023-05-19T14:59:14.146Z,22.72
2023-05-19T15:02:16.441Z,22.53
2023-05-19T15:05:19.047Z,22.39
2023-05-19T15:08:21.302Z,22.18
2023-05-19T15:11:24.182Z,22.12
2023-05-19T15:14:27.859Z,21.99
2023-05-19T15:17:31.225Z,22.00
2023-05-19T15:20:33.710Z,22.13
2023-05-19T15:23:36.396Z,22.22
2023-05-19T15:26:38.606Z,22.35
2023-05-19T15:29:41.261Z,22.44
2023-05-19T15:32:43.483Z,22.65
2023-05-19T15:35:47.654Z,23.00
2023-05-19T15:38:49.838Z,23.07
2023-05-19T15:41:52.303Z,22.92
2023-05-19T15:44:54.549Z,22.85
2023-05-19T15:47:57.129Z,22.83
2023-05-19T15:50:59.808Z,22.86
2023-05-19T15:54:02.333Z,22.91
2023-05-19T15:57:04.699Z,22.96
2023-05-19T16:00:07.824Z,22.93
2023-05-19T16:03:11.099Z,22.76
2023-05-19T16:06:13.489Z,22.66
2023-05-19T16:09:16.374Z,22.50
2023-05-19T16:12:18.665Z,22.41
2023-05-19T16:15:21.178Z,22.42
2023-05-19T16:18:23.639Z,22.41
2023-05-19T16:21:26.201Z,22.29
2023-05-19T16:24:28.415Z,22.16
2023-05-19T16:27:30.847Z,22.03
2023-05-19T16:30:33.331Z,21.93
2023-05-19T16:33:35.920Z,21.81
2023-05-19T16:36:38.292Z,21.73
2023-05-19T16:39:43.670Z,21.59
2023-05-19T16:42:45.935Z,21.54
2023-05-19T16:45:48.462Z,21.44
2023-05-19T16:48:50.920Z,21.39
2023-05-19T16:51:54.220Z,21.30
2023-05-19T16:54:56.501Z,21.21
2023-05-19T16:57:59.288Z,21.14
2023-05-19T17:01:01.609Z,21.05
2023-05-19T17:04:04.179Z,21.01
2023-05-19T17:07:06.404Z,20.94
2023-05-19T17:10:09.563Z,20.91
2023-05-19T17:13:11.947Z,20.83
2023-05-19T17:16:14.686Z,20.73
2023-05-19T17:19:16.971Z,20.64
2023-05-19T17:22:19.500Z,20.60
2023-05-19T17:25:21.677Z,20.52
2023-05-19T17:28:24.178Z,20.46
2023-05-19T17:31:26.385Z,20.40
2023-05-19T17:34:30.013Z,20.33
2023-05-19T17:37:33.175Z,20.26
2023-05-19T17:40:36.721Z,20.19
2023-05-19T17:43:41.280Z,20.12
2023-05-19T17:46:43.762Z,20.06
2023-05-19T17:49:45.984Z,20.00
2023-05-19T17:52:48.890Z,19.93
2023-05-19T17:55:53.446Z,19.84
2023-05-19T17:58:56.220Z,19.77
2023-05-19T18:01:58.793Z,19.68
2023-05-19T18:05:01.815Z,19.57
2023-05-19T18:08:07.722Z,19.48
2023-05-19T18:11:13.350Z,19.39
2023-05-19T18:14:15.539Z,19.29
2023-05-19T18:17:18.001Z,19.21
2023-05-19T18:20:20.366Z,19.12
2023-05-19T18:23:22.851Z,19.04
2023-05-19T18:26:25.070Z,18.97
2023-05-19T18:29:27.588Z,18.92
2023-05-19T18:32:30.132Z,18.85
2023-05-19T18:35:32.725Z,18.77
2023-05-19T18:41:41.153Z,18.47
2023-05-19T18:44:46.717Z,18.33
2023-05-19T18:47:49.225Z,18.24
2023-05-19T18:50:51.854Z,18.23
2023-05-19T18:53:54.294Z,18.19
2023-05-19T18:56:56.487Z,18.11
2023-05-19T18:59:58.983Z,18.00
2023-05-19T19:03:01.787Z,17.92
2023-05-19T19:06:04.367Z,17.88
2023-05-19T19:09:07.212Z,17.77
2023-05-19T19:12:10.630Z,17.65
2023-05-19T19:15:12.915Z,17.58
2023-05-19T19:18:15.877Z,17.55
2023-05-19T19:21:19.811Z,17.49
2023-05-19T19:24:22.330Z,17.39
2023-05-19T19:27:26.300Z,17.32
2023-05-19T19:30:29.476Z,17.27
2023-05-19T19:33:31.749Z,17.20
2023-05-19T19:36:34.762Z,17.14
2023-05-19T19:39:38.020Z,17.09
2023-05-19T19:42:40.723Z,16.99
2023-05-19T19:45:43.001Z,16.93
2023-05-19T19:48:45.620Z,16.91
2023-05-19T19:51:47.864Z,16.88
2023-05-19T19:54:50.571Z,16.80
2023-05-19T19:57:52.863Z,16.77
2023-05-19T20:00:59.703Z,16.73
2023-05-19T20:04:02.290Z,16.78
2023-05-19T20:07:04.855Z,16.82
2023-05-19T20:10:08.212Z,16.81
2023-05-19T20:13:10.492Z,16.78
2023-05-19T20:16:13.095Z,16.79
2023-05-19T20:19:15.470Z,16.71
2023-05-19T20:22:17.975Z,16.73
2023-05-19T20:25:20.342Z,16.73
2023-05-19T20:28:24.127Z,16.68
2023-05-19T20:31:26.608Z,16.61
2023-05-19T20:34:29.115Z,16.59
2023-05-19T20:37:31.358Z,16.58
2023-05-19T20:40:33.849Z,16.53
2023-05-19T20:43:36.287Z,16.53
2023-05-19T20:46:38.779Z,16.48
2023-05-19T20:49:40.978Z,16.49
2023-05-19T20:52:43.536Z,16.47
2023-05-19T20:55:46.253Z,16.47
2023-05-19T20:58:48.709Z,16.49
2023-05-19T21:01:51.232Z,16.50
2023-05-19T21:04:53.989Z,16.46
2023-05-19T21:07:56.369Z,16.40
2023-05-19T21:10:59.353Z,16.35
2023-05-19T21:14:04.191Z,16.37
2023-05-19T21:17:07.383Z,16.30
2023-05-19T21:20:10.297Z,16.27
2023-05-19T21:23:12.795Z,16.31
2023-05-19T21:26:15.159Z,16.29
2023-05-19T21:29:17.578Z,16.23
2023-05-19T21:32:20.744Z,16.16
2023-05-19T21:35:23.219Z,16.07
2023-05-19T21:38:25.518Z,16.00
2023-05-19T21:41:28.265Z,15.97
2023-05-19T21:44:31.933Z,15.94
2023-05-19T21:47:34.426Z,15.90
2023-05-19T21:50:37.674Z,15.83
2023-05-19T21:53:40.249Z,15.98
2023-05-19T21:56:42.437Z,15.95
2023-05-19T21:59:45.081Z,15.99
2023-05-19T22:02:47.428Z,15.95
2023-05-19T22:05:51.639Z,16.02
2023-05-19T22:08:53.839Z,16.07
2023-05-19T22:11:56.306Z,16.25
2023-05-19T22:14:58.728Z,16.35
2023-05-19T22:18:01.287Z,16.32
2023-05-19T22:21:03.797Z,16.24
2023-05-19T22:24:06.448Z,16.12
2023-05-19T22:27:08.752Z,16.05
2023-05-19T22:30:11.264Z,15.96
2023-05-19T22:33:13.582Z,15.82
2023-05-19T22:36:16.498Z,15.74
2023-05-19T22:39:18.668Z,15.63
2023-05-19T22:42:21.237Z,15.64
2023-05-19T22:45:23.422Z,15.58
2023-05-19T22:48:26.092Z,15.45
2023-05-19T22:51:28.302Z,15.41
2023-05-19T22:54:30.952Z,15.40
2023-05-19T22:57:33.135Z,15.33
2023-05-19T23:00:35.709Z,15.34
2023-05-19T23:03:38.015Z,15.41
2023-05-19T23:06:41.299Z,15.36
2023-05-19T23:09:43.498Z,15.37
2023-05-19T23:12:45.945Z,15.39
2023-05-19T23:15:48.740Z,15.43
2023-05-19T23:18:51.350Z,15.45
2023-05-19T23:21:53.685Z,15.59
2023-05-19T23:24:56.201Z,15.84
2023-05-19T23:27:58.424Z,15.95
2023-05-19T23:31:01.479Z,16.06
2023-05-19T23:34:03.746Z,16.16
2023-05-19T23:37:06.357Z,16.19
2023-05-19T23:40:09.111Z,16.27
2023-05-19T23:43:11.630Z,16.28
2023-05-19T23:46:13.900Z,16.32
2023-05-19T23:49:16.501Z,16.37
2023-05-19T23:52:18.700Z,16.45
2023-05-19T23:55:21.329Z,16.45
2023-05-19T23:58:23.611Z,16.46
